createdAt,value
2022-08-20T00:01:42.075Z,18.60
2022-08-20T00:04:09.373Z,22.13
2022-08-20T00:06:36.748Z,15.83
2022-08-20T00:09:04.673Z,16.05
2022-08-20T00:11:33.645Z,21.40
2022-08-20T00:14:04.864Z,17.38
2022-08-20T00:16:34.981Z,15.75
2022-08-20T00:19:27.158Z,15.67
2022-08-20T00:21:58.051Z,15.05
2022-08-20T00:24:26.511Z,15.05
2022-08-20T00:26:53.709Z,17.67
2022-08-20T00:29:24.754Z,15.43
2022-08-20T00:31:51.920Z,18.50
2022-08-20T00:34:19.236Z,16.15
2022-08-20T00:36:47.021Z,18.60
2022-08-20T00:39:15.989Z,16.70
2022-08-20T00:42:02.279Z,14.75
2022-08-20T00:48:56.048Z,15.75
2022-08-20T00:51:30.689Z,16.90
2022-08-20T00:54:11.028Z,16.92
2022-08-20T00:56:40.868Z,16.02
2022-08-20T00:59:12.737Z,19.97
2022-08-20T01:01:55.490Z,14.90
2022-08-20T01:04:27.897Z,18.52
2022-08-20T01:06:55.800Z,13.77
2022-08-20T01:09:49.784Z,16.73
2022-08-20T01:12:12.475Z,15.40
2022-08-20T01:14:47.520Z,14.75
2022-08-20T01:17:19.013Z,14.35
2022-08-20T01:20:01.014Z,18.13
2022-08-20T01:26:19.387Z,14.27
2022-08-20T01:29:09.054Z,13.93
2022-08-20T01:31:38.618Z,15.68
2022-08-20T01:34:08.996Z,13.13
2022-08-20T01:36:46.290Z,17.48
2022-08-20T01:39:21.321Z,15.17
2022-08-20T01:41:57.075Z,15.40
2022-08-20T01:44:29.729Z,16.90
2022-08-20T01:47:10.480Z,14.63
2022-08-20T01:49:44.002Z,14.77
2022-08-20T01:52:19.952Z,16.87
2022-08-20T01:54:47.162Z,17.10
2022-08-20T01:57:17.089Z,16.85
2022-08-20T01:59:45.216Z,11.88
2022-08-20T02:02:12.967Z,14.98
2022-08-20T02:04:41.027Z,11.90
2022-08-20T02:07:14.907Z,12.80
2022-08-20T02:09:42.277Z,15.98
2022-08-20T02:12:10.814Z,16.10
2022-08-20T02:14:46.932Z,12.48
2022-08-20T02:17:15.643Z,13.83
2022-08-20T02:20:11.091Z,16.60
2022-08-20T02:22:50.335Z,13.68
2022-08-20T02:25:19.925Z,10.82
2022-08-20T02:27:52.087Z,14.30
2022-08-20T02:30:27.778Z,14.00
2022-08-20T02:32:59.458Z,13.82
2022-08-20T02:35:27.417Z,16.35
2022-08-20T02:37:55.293Z,16.13
2022-08-20T02:40:27.178Z,14.48
2022-08-20T02:42:59.142Z,11.43
2022-08-20T02:45:26.475Z,12.35
2022-08-20T02:47:54.217Z,15.07
2022-08-20T02:50:22.509Z,15.85
2022-08-20T02:52:51.676Z,17.48
2022-08-20T02:55:27.937Z,10.53
2022-08-20T02:57:59.092Z,14.48
2022-08-20T03:00:32.202Z,16.73
2022-08-20T03:03:08.146Z,14.40
2022-08-20T03:05:36.551Z,10.60
2022-08-20T03:08:08.466Z,15.03
2022-08-20T03:10:36.656Z,14.25
2022-08-20T03:13:05.167Z,13.98
2022-08-20T03:15:33.934Z,17.25
2022-08-20T03:18:01.233Z,16.00
2022-08-20T03:20:29.070Z,13.77
2022-08-20T03:22:56.829Z,14.75
2022-08-20T03:25:24.186Z,14.88
2022-08-20T03:27:55.022Z,12.90
2022-08-20T03:30:24.244Z,15.73
2022-08-20T03:32:51.634Z,18.20
2022-08-20T03:35:21.244Z,12.77
2022-08-20T03:37:48.866Z,14.02
2022-08-20T03:40:38.719Z,13.27
2022-08-20T03:43:08.861Z,15.90
2022-08-20T03:45:38.594Z,13.93
2022-08-20T03:48:07.823Z,14.15
2022-08-20T03:50:35.370Z,11.32
2022-08-20T03:53:02.615Z,12.07
2022-08-20T03:55:32.179Z,11.27
2022-08-20T03:58:03.825Z,12.90
2022-08-20T04:03:28.874Z,15.35
2022-08-20T04:05:56.009Z,14.13
2022-08-20T04:08:26.855Z,14.00
2022-08-20T04:10:57.628Z,14.87
2022-08-20T04:13:25.987Z,14.50
2022-08-20T04:15:55.564Z,16.92
2022-08-20T04:18:25.794Z,14.18
2022-08-20T04:20:53.883Z,17.45
2022-08-20T04:23:22.287Z,13.87
2022-08-20T04:25:49.805Z,15.13
2022-08-20T04:28:30.034Z,16.85
2022-08-20T04:30:59.890Z,15.35
2022-08-20T04:33:33.927Z,14.45
2022-08-20T04:36:06.078Z,18.10
2022-08-20T04:38:50.428Z,16.25
2022-08-20T04:41:23.252Z,14.10
2022-08-20T04:43:56.137Z,12.30
2022-08-20T04:46:28.504Z,14.50
2022-08-20T04:48:56.688Z,17.57
2022-08-20T04:51:24.493Z,18.70
2022-08-20T04:56:45.529Z,13.20
2022-08-20T04:59:12.605Z,14.02
2022-08-20T05:01:39.788Z,12.93
2022-08-20T05:04:06.974Z,13.18
2022-08-20T05:06:38.605Z,14.45
2022-08-20T05:09:05.824Z,17.60
2022-08-20T05:11:36.754Z,13.65
2022-08-20T05:14:08.585Z,14.63
2022-08-20T05:16:38.434Z,15.50
2022-08-20T05:19:09.096Z,17.70
2022-08-20T05:21:37.845Z,16.30
2022-08-20T05:28:32.868Z,16.83
2022-08-20T05:31:07.196Z,14.25
2022-08-20T05:33:34.302Z,12.93
2022-08-20T05:36:02.091Z,13.07
2022-08-20T05:38:29.319Z,14.38
2022-08-20T05:40:56.577Z,14.33
2022-08-20T05:43:24.192Z,15.27
2022-08-20T05:45:56.070Z,14.77
2022-08-20T05:48:25.461Z,13.55
2022-08-20T05:50:54.483Z,12.95
2022-08-20T05:53:23.338Z,14.07
2022-08-20T05:55:50.685Z,20.10
2022-08-20T05:58:26.266Z,14.50
2022-08-20T06:00:54.846Z,18.00
2022-08-20T06:03:58.136Z,14.45
2022-08-20T06:06:45.071Z,18.07
2022-08-20T06:09:12.749Z,13.85
2022-08-20T06:11:39.872Z,17.15
2022-08-20T06:14:07.068Z,20.90
2022-08-20T06:16:34.329Z,16.73
2022-08-20T06:19:11.342Z,17.37
2022-08-20T06:21:40.411Z,17.77
2022-08-20T06:24:08.405Z,14.88
2022-08-20T06:26:36.358Z,14.10
2022-08-20T06:29:06.881Z,16.00
2022-08-20T06:31:35.104Z,14.37
2022-08-20T06:34:02.212Z,16.90
2022-08-20T06:36:29.317Z,14.82
2022-08-20T06:38:58.322Z,15.20
2022-08-20T06:41:35.992Z,16.13
2022-08-20T06:44:07.522Z,14.83
2022-08-20T06:46:36.191Z,16.42
2022-08-20T06:49:05.961Z,16.10
2022-08-20T06:51:34.368Z,17.15
2022-08-20T06:54:01.482Z,16.77
2022-08-20T06:56:28.601Z,14.47
2022-08-20T06:58:55.770Z,16.48
2022-08-20T07:01:23.056Z,18.73
2022-08-20T07:03:54.125Z,15.57
2022-08-20T07:06:25.818Z,20.90
2022-08-20T07:08:55.250Z,17.27
2022-08-20T07:11:27.355Z,16.05
2022-08-20T07:13:58.776Z,21.15
2022-08-20T07:16:27.243Z,17.35
2022-08-20T07:18:54.508Z,18.15
2022-08-20T07:21:21.626Z,19.67
2022-08-20T07:23:49.441Z,18.40
2022-08-20T07:26:17.327Z,17.15
2022-08-20T07:28:44.545Z,18.20
2022-08-20T07:31:31.314Z,14.27
2022-08-20T07:33:59.799Z,21.43
2022-08-20T07:36:27.346Z,18.08
2022-08-20T07:38:54.682Z,18.80
2022-08-20T07:41:24.110Z,17.35
2022-08-20T07:43:51.300Z,16.98
2022-08-20T07:46:21.582Z,17.10
2022-08-20T07:48:50.644Z,15.85
2022-08-20T07:51:19.986Z,15.18
2022-08-20T07:53:48.694Z,13.88
2022-08-20T07:56:21.308Z,17.02
2022-08-20T07:58:52.420Z,15.90
2022-08-20T08:01:22.471Z,12.68
2022-08-20T08:03:50.706Z,14.68
2022-08-20T08:06:29.741Z,11.32
2022-08-20T08:09:02.246Z,15.80
2022-08-20T08:11:29.854Z,11.03
2022-08-20T08:13:58.585Z,13.23
2022-08-20T08:16:25.802Z,13.75
2022-08-20T08:18:56.935Z,14.48
2022-08-20T08:21:25.218Z,12.98
2022-08-20T08:23:53.442Z,12.07
2022-08-20T08:26:22.415Z,13.00
2022-08-20T08:28:49.522Z,13.50
2022-08-20T08:31:16.758Z,13.52
2022-08-20T08:33:43.934Z,10.43
2022-08-20T08:36:13.616Z,11.03
2022-08-20T08:38:43.648Z,14.30
2022-08-20T08:41:13.867Z,10.85
2022-08-20T08:43:46.680Z,12.20
2022-08-20T08:46:18.208Z,11.82
2022-08-20T08:48:47.805Z,12.63
2022-08-20T08:51:24.246Z,13.63
2022-08-20T08:53:54.783Z,12.25
2022-08-20T08:56:28.773Z,10.27
2022-08-20T08:59:00.707Z,12.25
2022-08-20T09:01:55.233Z,13.73
2022-08-20T09:04:21.765Z,11.10
2022-08-20T09:06:53.464Z,11.10
2022-08-20T09:09:31.443Z,8.98
2022-08-20T09:12:20.429Z,10.88
2022-08-20T09:14:48.936Z,13.07
2022-08-20T09:17:17.278Z,9.95
2022-08-20T09:19:45.768Z,8.93
2022-08-20T09:22:15.890Z,10.55
2022-08-20T09:24:44.137Z,11.88
2022-08-20T09:27:12.075Z,8.63
2022-08-20T09:29:39.697Z,9.38
2022-08-20T09:32:11.148Z,8.35
2022-08-20T09:34:44.856Z,11.25
2022-08-20T09:37:12.670Z,7.60
2022-08-20T09:39:40.517Z,7.17
2022-08-20T09:42:14.433Z,12.50
2022-08-20T09:44:41.697Z,11.07
2022-08-20T09:47:10.289Z,10.07
2022-08-20T09:49:38.315Z,7.25
2022-08-20T09:52:08.256Z,9.40
2022-08-20T09:54:36.715Z,9.40
2022-08-20T09:57:06.665Z,9.55
2022-08-20T09:59:35.353Z,11.13
2022-08-20T10:02:03.485Z,11.32
2022-08-20T10:04:32.587Z,11.30
2022-08-20T10:06:59.672Z,9.07
2022-08-20T10:09:26.885Z,13.35
2022-08-20T10:11:54.017Z,9.55
2022-08-20T10:14:21.118Z,10.57
2022-08-20T10:16:59.980Z,12.07
2022-08-20T10:19:30.192Z,12.25
2022-08-20T10:21:58.448Z,14.10
2022-08-20T10:24:26.078Z,14.43
2022-08-20T10:28:02.508Z,9.95
2022-08-20T10:30:54.931Z,13.27
2022-08-20T10:33:22.068Z,11.30
2022-08-20T10:35:49.282Z,13.10
2022-08-20T10:38:21.488Z,9.38
2022-08-20T10:40:52.209Z,13.90
2022-08-20T10:43:19.872Z,11.07
2022-08-20T10:45:47.068Z,8.35
2022-08-20T10:48:17.210Z,6.88
2022-08-20T10:51:12.808Z,8.38
2022-08-20T10:53:40.816Z,8.18
2022-08-20T10:56:07.929Z,9.47
2022-08-20T10:58:39.673Z,9.20
2022-08-20T11:01:08.982Z,7.72
2022-08-20T11:03:36.223Z,9.60
2022-08-20T11:06:03.790Z,7.55
2022-08-20T11:08:34.494Z,8.97
2022-08-20T11:11:04.725Z,8.35
2022-08-20T11:13:33.047Z,8.98
2022-08-20T11:16:01.278Z,10.77
2022-08-20T11:18:29.405Z,5.95
2022-08-20T11:20:57.320Z,7.67
2022-08-20T11:23:24.739Z,8.90
2022-08-20T11:25:52.061Z,7.20
2022-08-20T11:28:31.780Z,7.97
2022-08-20T11:31:00.528Z,9.15
2022-08-20T11:33:27.626Z,10.73
2022-08-20T11:35:55.621Z,10.38
2022-08-20T11:38:23.725Z,8.40
2022-08-20T11:40:50.930Z,8.27
2022-08-20T11:43:18.542Z,10.15
2022-08-20T11:45:52.866Z,9.00
2022-08-20T11:48:20.553Z,6.78
2022-08-20T11:50:48.767Z,7.60
2022-08-20T11:53:16.222Z,10.23
2022-08-20T11:55:44.096Z,8.32
2022-08-20T11:58:11.702Z,9.07
2022-08-20T12:00:39.188Z,7.68
2022-08-20T12:03:09.130Z,9.02
2022-08-20T12:05:43.420Z,8.05
2022-08-20T12:08:26.442Z,7.30
2022-08-20T12:10:57.192Z,8.70
2022-08-20T12:13:30.492Z,8.48
2022-08-20T12:15:59.363Z,10.13
2022-08-20T12:18:27.089Z,7.82
2022-08-20T12:20:54.807Z,9.05
2022-08-20T12:23:21.956Z,6.30
2022-08-20T12:25:49.970Z,8.98
2022-08-20T12:28:17.076Z,11.07
2022-08-20T12:30:50.214Z,7.50
2022-08-20T12:33:17.303Z,7.68
2022-08-20T12:35:44.506Z,8.60
2022-08-20T12:38:11.622Z,7.28
2022-08-20T12:40:39.346Z,7.97
2022-08-20T12:43:06.963Z,6.38
2022-08-20T12:45:34.801Z,8.68
2022-08-20T12:48:10.587Z,7.43
2022-08-20T12:50:41.032Z,5.93
2022-08-20T12:53:08.777Z,6.28
2022-08-20T12:55:36.036Z,7.90
2022-08-20T12:58:05.074Z,7.43
2022-08-20T13:00:38.027Z,6.63
2022-08-20T13:03:07.195Z,7.47
2022-08-20T13:05:35.693Z,6.28
2022-08-20T13:08:07.964Z,6.50
2022-08-20T13:10:38.278Z,7.50
2022-08-20T13:13:05.386Z,6.47
2022-08-20T13:15:33.198Z,6.93
2022-08-20T13:18:02.516Z,7.75
2022-08-20T13:20:34.562Z,6.75
2022-08-20T13:23:04.317Z,7.63
2022-08-20T13:25:32.443Z,7.10
2022-08-20T13:28:01.377Z,7.85
2022-08-20T13:30:29.419Z,5.80
2022-08-20T13:33:00.649Z,6.53
2022-08-20T13:35:27.915Z,6.78
2022-08-20T13:37:55.931Z,6.13
2022-08-20T13:40:23.231Z,6.95
2022-08-20T13:42:50.456Z,6.85
2022-08-20T13:45:17.768Z,5.55
2022-08-20T13:47:44.984Z,9.65
2022-08-20T13:50:15.327Z,6.13
2022-08-20T13:52:43.553Z,4.70
2022-08-20T13:55:13.471Z,7.25
2022-08-20T13:57:43.149Z,4.45
2022-08-20T14:00:14.541Z,5.30
2022-08-20T14:02:42.546Z,5.53
2022-08-20T14:05:11.206Z,6.75
2022-08-20T14:07:42.625Z,6.53
2022-08-20T14:10:12.883Z,5.72
2022-08-20T14:12:40.027Z,6.55
2022-08-20T14:15:11.832Z,8.47
2022-08-20T14:17:42.823Z,7.22
2022-08-20T14:20:16.007Z,5.22
2022-08-20T14:22:45.144Z,6.30
2022-08-20T14:25:14.613Z,5.72
2022-08-20T14:27:42.947Z,6.50
2022-08-20T14:30:16.728Z,7.78
2022-08-20T14:32:44.272Z,7.93
2022-08-20T14:35:11.849Z,6.45
2022-08-20T14:37:42.860Z,6.97
2022-08-20T14:40:14.064Z,5.83
2022-08-20T14:42:43.263Z,5.93
2022-08-20T14:45:14.320Z,6.15
2022-08-20T14:47:51.886Z,5.55
2022-08-20T14:50:33.603Z,7.55
2022-08-20T14:53:01.271Z,8.70
2022-08-20T14:55:32.211Z,8.43
2022-08-20T14:57:59.529Z,6.30
2022-08-20T15:00:30.539Z,6.35
2022-08-20T15:02:58.292Z,5.28
2022-08-20T15:05:26.145Z,6.67
2022-08-20T15:08:23.194Z,6.22
2022-08-20T15:10:55.997Z,7.65
2022-08-20T15:13:23.061Z,5.80
2022-08-20T15:15:50.246Z,6.43
2022-08-20T15:18:18.510Z,7.60
2022-08-20T15:20:45.703Z,8.68
2022-08-20T15:23:12.899Z,7.80
2022-08-20T15:25:40.041Z,9.52
2022-08-20T15:28:09.593Z,6.75
2022-08-20T15:30:39.900Z,6.40
2022-08-20T15:33:07.723Z,6.88
2022-08-20T15:35:35.464Z,6.20
2022-08-20T15:38:02.646Z,6.85
2022-08-20T15:40:32.360Z,7.50
2022-08-20T15:43:01.746Z,6.77
2022-08-20T15:45:30.089Z,5.82
2022-08-20T15:48:09.314Z,5.82
2022-08-20T15:51:03.408Z,4.88
2022-08-20T15:53:42.470Z,6.72
2022-08-20T15:56:16.529Z,7.50
2022-08-20T15:58:58.959Z,7.85
2022-08-20T16:01:50.462Z,6.32
2022-08-20T16:04:51.250Z,8.48
2022-08-20T16:07:39.131Z,5.97
2022-08-20T16:10:17.136Z,7.83
2022-08-20T16:12:49.745Z,6.25
2022-08-20T16:15:35.671Z,9.00
2022-08-20T16:18:25.984Z,8.68
2022-08-20T16:21:00.597Z,11.05
2022-08-20T16:23:36.917Z,7.93
2022-08-20T16:26:15.935Z,8.88
2022-08-20T16:28:43.052Z,9.60
2022-08-20T16:31:14.486Z,8.23
2022-08-20T16:33:48.357Z,9.13
2022-08-20T16:36:28.941Z,5.93
2022-08-20T16:39:04.713Z,7.72
2022-08-20T16:41:37.993Z,7.45
2022-08-20T16:44:35.668Z,6.70
2022-08-20T16:47:21.228Z,7.30
2022-08-20T16:50:12.755Z,7.43
2022-08-20T16:52:42.494Z,6.15
2022-08-20T16:55:10.298Z,6.85
2022-08-20T16:57:37.669Z,9.25
2022-08-20T17:00:16.373Z,8.70
2022-08-20T17:03:05.705Z,9.67
2022-08-20T17:05:38.928Z,8.18
2022-08-20T17:08:08.237Z,5.53
2022-08-20T17:10:54.594Z,6.95
2022-08-20T17:13:28.107Z,10.18
2022-08-20T17:16:02.414Z,9.13
2022-08-20T17:18:38.631Z,7.93
2022-08-20T17:21:14.801Z,7.75
2022-08-20T17:23:56.313Z,7.82
2022-08-20T17:26:35.332Z,8.95
2022-08-20T17:29:23.913Z,7.40
2022-08-20T17:32:01.391Z,6.95
2022-08-20T17:34:32.798Z,8.15
2022-08-20T17:37:19.870Z,7.50
2022-08-20T17:39:51.924Z,8.07
2022-08-20T17:42:25.603Z,7.67
2022-08-20T17:45:21.564Z,11.93
2022-08-20T17:47:49.059Z,7.85
2022-08-20T17:50:20.133Z,7.90
2022-08-20T17:52:58.837Z,7.95
2022-08-20T17:55:26.477Z,10.73
2022-08-20T17:57:57.809Z,9.13
2022-08-20T18:00:27.972Z,9.77
2022-08-20T18:03:09.112Z,8.65
2022-08-20T18:05:38.767Z,8.77
2022-08-20T18:08:17.176Z,9.13
2022-08-20T18:10:59.836Z,10.82
2022-08-20T18:14:08.758Z,11.20
2022-08-20T18:17:10.665Z,9.48
2022-08-20T18:19:56.358Z,10.07
2022-08-20T18:22:28.824Z,9.67
2022-08-20T18:25:11.120Z,8.32
2022-08-20T18:27:46.361Z,9.32
2022-08-20T18:30:21.032Z,11.43
2022-08-20T18:32:59.899Z,11.68
2022-08-20T18:35:45.761Z,9.43
2022-08-20T18:38:28.269Z,9.10
2022-08-20T18:41:26.757Z,11.27
2022-08-20T18:44:11.121Z,10.00
2022-08-20T18:46:53.804Z,8.25
2022-08-20T18:49:30.425Z,7.67
2022-08-20T18:52:07.734Z,10.10
2022-08-20T18:54:35.421Z,8.23
2022-08-20T18:57:40.630Z,11.20
2022-08-20T19:00:16.646Z,10.48
2022-08-20T19:02:58.932Z,8.83
2022-08-20T19:05:36.884Z,8.85
2022-08-20T19:08:05.848Z,11.90
2022-08-20T19:10:54.027Z,12.18
2022-08-20T19:13:46.233Z,8.20
2022-08-20T19:16:22.016Z,11.10
2022-08-20T19:18:54.890Z,9.90
2022-08-20T19:21:26.368Z,9.32
2022-08-20T19:23:57.840Z,8.70
2022-08-20T19:26:28.795Z,8.05
2022-08-20T19:29:02.350Z,10.63
2022-08-20T19:31:34.661Z,8.88
2022-08-20T19:34:19.924Z,8.13
2022-08-20T19:37:09.114Z,8.20
2022-08-20T19:39:50.917Z,9.98
2022-08-20T19:42:32.972Z,9.47
2022-08-20T19:45:02.955Z,9.73
2022-08-20T19:47:33.698Z,10.15
2022-08-20T19:50:26.390Z,9.23
2022-08-20T19:53:14.552Z,11.40
2022-08-20T19:55:42.252Z,9.40
2022-08-20T19:58:16.815Z,10.25
2022-08-20T20:00:55.451Z,12.32
2022-08-20T20:03:26.009Z,12.95
2022-08-20T20:06:16.573Z,11.52
2022-08-20T20:08:58.535Z,12.33
2022-08-20T20:11:45.082Z,11.68
2022-08-20T20:14:15.013Z,11.23
2022-08-20T20:16:42.591Z,12.45
2022-08-20T20:19:28.460Z,12.80
2022-08-20T20:22:19.089Z,12.03
2022-08-20T20:24:57.552Z,11.60
2022-08-20T20:27:26.838Z,11.68
2022-08-20T20:30:03.834Z,14.93
2022-08-20T20:32:33.821Z,12.73
2022-08-20T20:35:04.786Z,11.63
2022-08-20T20:37:49.656Z,13.23
2022-08-20T20:40:30.966Z,11.10
2022-08-20T20:43:05.228Z,13.15
2022-08-20T20:45:35.805Z,15.82
2022-08-20T20:48:14.510Z,10.83
2022-08-20T20:50:42.337Z,12.27
2022-08-20T20:53:09.755Z,11.85
2022-08-20T20:55:38.723Z,11.77
2022-08-20T20:58:06.014Z,13.70
2022-08-20T21:00:34.507Z,11.80
2022-08-20T21:03:04.387Z,12.70
2022-08-20T21:05:32.469Z,9.30
2022-08-20T21:08:06.065Z,10.10
2022-08-20T21:10:37.083Z,11.93
2022-08-20T21:13:08.070Z,15.43
2022-08-20T21:15:37.806Z,10.23
2022-08-20T21:18:06.824Z,15.40
2022-08-20T21:20:34.236Z,10.57
2022-08-20T21:23:01.487Z,9.52
2022-08-20T21:25:31.402Z,11.90
2022-08-20T21:27:58.709Z,11.18
2022-08-20T21:30:26.601Z,10.10
2022-08-20T21:32:54.078Z,13.02
2022-08-20T21:35:21.433Z,12.70
2022-08-20T21:37:48.701Z,10.10
2022-08-20T21:40:18.091Z,11.93
2022-08-20T21:42:46.432Z,12.05
2022-08-20T21:45:18.698Z,11.77
2022-08-20T21:47:49.120Z,14.40
2022-08-20T21:50:18.631Z,11.80
2022-08-20T21:52:52.491Z,10.20
2022-08-20T21:55:29.895Z,9.70
2022-08-20T21:57:58.608Z,9.23
2022-08-20T22:00:57.874Z,13.30
2022-08-20T22:03:32.382Z,9.50
2022-08-20T22:06:00.928Z,10.65
2022-08-20T22:08:28.482Z,11.43
2022-08-20T22:10:57.759Z,10.10
2022-08-20T22:13:31.280Z,9.88
2022-08-20T22:16:01.071Z,8.53
2022-08-20T22:18:28.321Z,11.05
2022-08-20T22:20:55.841Z,9.73
2022-08-20T22:23:23.537Z,10.57
2022-08-20T22:25:51.317Z,12.90
2022-08-20T22:28:19.172Z,9.83
2022-08-20T22:30:46.662Z,8.50
2022-08-20T22:33:19.892Z,9.30
2022-08-20T22:35:49.414Z,9.98
2022-08-20T22:38:17.187Z,7.25
2022-08-20T22:40:47.753Z,8.43
2022-08-20T22:43:15.773Z,9.38
2022-08-20T22:45:45.634Z,9.50
2022-08-20T22:48:16.025Z,8.45
2022-08-20T22:50:43.354Z,11.85
2022-08-20T22:53:12.146Z,9.17
2022-08-20T22:55:39.358Z,9.23
2022-08-20T22:58:07.196Z,8.48
2022-08-20T23:00:35.046Z,9.45
2022-08-20T23:03:04.052Z,8.57
2022-08-20T23:05:33.579Z,7.33
2022-08-20T23:08:01.225Z,7.78
2022-08-20T23:10:31.184Z,11.00
2022-08-20T23:15:50.259Z,8.73
2022-08-20T23:18:19.461Z,9.60
2022-08-20T23:20:50.738Z,8.80
2022-08-20T23:23:18.741Z,9.05
2022-08-20T23:25:46.428Z,10.00
2022-08-20T23:28:13.887Z,8.63
2022-08-20T23:30:40.991Z,8.07
2022-08-20T23:33:08.427Z,7.43
2022-08-20T23:35:38.608Z,8.13
2022-08-20T23:38:06.495Z,9.80
2022-08-20T23:40:34.626Z,8.65
2022-08-20T23:43:01.866Z,8.43
2022-08-20T23:45:29.992Z,9.73
2022-08-20T23:47:57.360Z,10.60
2022-08-20T23:50:27.523Z,9.25
2022-08-20T23:52:56.102Z,7.38
2022-08-20T23:55:23.668Z,7.63
2022-08-20T23:57:51.159Z,9.60
